createdAt,value
2024-01-05T00:00:51.901Z,102256.54
2024-01-05T00:03:19.058Z,102257.63
2024-01-05T00:05:32.338Z,102258.38
2024-01-05T00:07:46.340Z,102266.39
2024-01-05T00:09:59.435Z,102270.83
2024-01-05T00:12:13.394Z,102270.50
2024-01-05T00:14:26.524Z,102263.19
2024-01-05T00:16:39.881Z,102261.73
2024-01-05T00:18:53.819Z,102265.60
2024-01-05T00:21:07.146Z,102266.70
2024-01-05T00:23:20.417Z,102268.44
2024-01-05T00:25:33.517Z,102269.30
2024-01-05T00:27:46.504Z,102269.06
2024-01-05T00:29:59.492Z,102275.27
2024-01-05T00:32:14.952Z,102275.73
2024-01-05T00:34:29.312Z,102280.86
2024-01-05T00:36:43.969Z,102279.98
2024-01-05T00:38:57.393Z,102286.73
2024-01-05T00:41:10.805Z,102286.11
2024-01-05T00:43:23.921Z,102295.42
2024-01-05T00:45:36.948Z,102294.55
2024-01-05T00:47:50.290Z,102293.47
2024-01-05T00:50:03.426Z,102298.03
2024-01-05T00:52:17.121Z,102299.57
2024-01-05T00:54:30.447Z,102300.04
2024-01-05T00:56:44.090Z,102301.02
2024-01-05T00:58:57.465Z,102305.86
2024-01-05T01:01:13.168Z,102310.00
2024-01-05T01:03:26.176Z,102312.59
2024-01-05T01:05:39.561Z,102318.89
2024-01-05T01:07:52.695Z,102322.69
2024-01-05T01:10:05.635Z,102323.44
2024-01-05T01:12:19.348Z,102323.27
2024-01-05T01:14:32.508Z,102324.58
2024-01-05T01:16:45.416Z,102326.27
2024-01-05T01:18:58.561Z,102329.95
2024-01-05T01:21:12.039Z,102330.20
2024-01-05T01:23:25.354Z,102335.98
2024-01-05T01:25:38.793Z,102336.27
2024-01-05T01:27:52.538Z,102337.91
2024-01-05T01:30:05.634Z,102339.19
2024-01-05T01:32:18.941Z,102337.98
2024-01-05T01:34:32.051Z,102336.43
2024-01-05T01:36:45.330Z,102338.52
2024-01-05T01:38:58.941Z,102341.29
2024-01-05T01:41:12.071Z,102342.58
2024-01-05T01:43:30.382Z,102340.15
2024-01-05T01:45:43.475Z,102341.97
2024-01-05T01:47:57.918Z,102340.65
2024-01-05T01:50:12.564Z,102343.94
2024-01-05T01:52:25.906Z,102345.30
2024-01-05T01:54:40.268Z,102350.93
2024-01-05T01:56:55.094Z,102356.05
2024-01-05T01:59:09.764Z,102362.30
2024-01-05T02:01:23.089Z,102365.05
2024-01-05T02:03:36.486Z,102372.67
2024-01-05T02:05:50.938Z,102372.39
2024-01-05T02:08:05.281Z,102367.39
2024-01-05T02:10:18.557Z,102368.76
2024-01-05T02:12:31.902Z,102368.45
2024-01-05T02:14:45.978Z,102373.48
2024-01-05T02:16:59.067Z,102374.14
2024-01-05T02:19:12.385Z,102372.44
2024-01-05T02:21:35.394Z,102374.67
2024-01-05T02:23:48.301Z,102376.73
2024-01-05T02:26:03.000Z,102372.63
2024-01-05T02:28:16.470Z,102370.65
2024-01-05T02:30:29.401Z,102370.48
2024-01-05T02:32:42.569Z,102371.91
2024-01-05T02:34:55.544Z,102367.34
2024-01-05T02:37:08.515Z,102366.70
2024-01-05T02:39:21.590Z,102365.64
2024-01-05T02:41:37.404Z,102361.35
2024-01-05T02:43:51.316Z,102363.11
2024-01-05T02:46:04.207Z,102365.20
2024-01-05T02:48:18.122Z,102360.39
2024-01-05T02:50:31.081Z,102367.38
2024-01-05T02:52:44.962Z,102370.17
2024-01-05T02:54:58.056Z,102372.42
2024-01-05T02:57:11.515Z,102383.11
2024-01-05T02:59:24.948Z,102391.31
2024-01-05T03:01:38.299Z,102398.83
2024-01-05T03:03:52.599Z,102402.90
2024-01-05T03:06:05.664Z,102403.23
2024-01-05T03:08:19.083Z,102406.42
2024-01-05T03:10:32.105Z,102410.14
2024-01-05T03:12:45.302Z,102405.61
2024-01-05T03:14:58.355Z,102405.47
2024-01-05T03:17:11.972Z,102404.06
2024-01-05T03:19:25.229Z,102405.31
2024-01-05T03:21:38.704Z,102403.03
2024-01-05T03:23:52.442Z,102403.92
2024-01-05T03:26:05.368Z,102404.70
2024-01-05T03:28:18.832Z,102408.08
2024-01-05T03:30:32.263Z,102406.89
2024-01-05T03:32:46.281Z,102407.98
2024-01-05T03:34:59.319Z,102409.95
2024-01-05T03:37:12.401Z,102411.43
2024-01-05T03:39:25.456Z,102409.17
2024-01-05T03:41:39.628Z,102407.58
2024-01-05T03:43:53.260Z,102403.34
2024-01-05T03:46:06.444Z,102407.40
2024-01-05T03:48:19.714Z,102408.48
2024-01-05T03:50:32.857Z,102408.00
2024-01-05T03:52:46.040Z,102411.40
2024-01-05T03:54:59.155Z,102417.33
2024-01-05T03:57:12.399Z,102431.41
2024-01-05T03:59:25.482Z,102433.30
2024-01-05T04:01:46.077Z,102436.95
2024-01-05T04:04:00.085Z,102437.95
2024-01-05T04:06:22.117Z,102430.80
2024-01-05T04:08:35.368Z,102427.18
2024-01-05T04:10:48.804Z,102427.08
2024-01-05T04:13:03.074Z,102426.81
2024-01-05T04:15:16.642Z,102424.61
2024-01-05T04:17:29.663Z,102431.39
2024-01-05T04:19:42.698Z,102439.81
2024-01-05T04:21:56.238Z,102439.20
2024-01-05T04:24:09.938Z,102444.05
2024-01-05T04:26:23.075Z,102452.41
2024-01-05T04:28:36.340Z,102452.06
2024-01-05T04:30:49.535Z,102457.53
2024-01-05T04:33:03.587Z,102460.70
2024-01-05T04:35:17.129Z,102459.11
2024-01-05T04:37:30.346Z,102460.50
2024-01-05T04:39:46.044Z,102455.89
2024-01-05T04:41:59.030Z,102457.48
2024-01-05T04:44:12.631Z,102460.86
2024-01-05T04:46:25.979Z,102462.99
2024-01-05T04:48:40.009Z,102469.58
2024-01-05T04:50:53.809Z,102461.73
2024-01-05T04:53:07.158Z,102459.52
2024-01-05T04:55:20.553Z,102457.27
2024-01-05T04:57:34.129Z,102465.57
2024-01-05T04:59:48.650Z,102462.78
2024-01-05T05:02:02.750Z,102472.48
2024-01-05T05:04:16.971Z,102465.61
2024-01-05T05:06:30.275Z,102462.62
2024-01-05T05:08:43.676Z,102463.86
2024-01-05T05:10:56.730Z,102464.44
2024-01-05T05:13:09.982Z,102459.29
2024-01-05T05:15:23.269Z,102462.56
2024-01-05T05:17:36.322Z,102467.15
2024-01-05T05:19:50.725Z,102469.04
2024-01-05T05:22:04.237Z,102467.39
2024-01-05T05:24:17.284Z,102465.38
2024-01-05T05:26:30.662Z,102469.52
2024-01-05T05:28:43.816Z,102467.08
2024-01-05T05:30:56.933Z,102472.73
2024-01-05T05:33:10.676Z,102479.29
2024-01-05T05:35:24.095Z,102482.02
2024-01-05T05:37:37.033Z,102486.48
2024-01-05T05:39:51.292Z,102493.94
2024-01-05T05:42:26.098Z,102495.18
2024-01-05T05:44:59.881Z,102493.94
2024-01-05T05:48:25.621Z,102497.66
2024-01-05T05:50:29.264Z,102496.94
2024-01-05T05:53:06.156Z,102501.89
2024-01-05T05:55:41.889Z,102510.36
2024-01-05T05:58:29.357Z,102517.42
2024-01-05T06:01:03.544Z,102521.39
2024-01-05T06:03:38.622Z,102529.33
2024-01-05T06:06:24.963Z,102533.02
2024-01-05T06:08:53.836Z,102534.59
2024-01-05T06:11:29.132Z,102539.39
2024-01-05T06:13:56.072Z,102537.13
2024-01-05T06:16:32.793Z,102534.85
2024-01-05T06:19:06.560Z,102532.24
2024-01-05T06:21:40.891Z,102534.57
2024-01-05T06:24:16.030Z,102537.30
2024-01-05T06:26:43.865Z,102543.88
2024-01-05T06:29:06.742Z,102544.79
2024-01-05T06:31:41.724Z,102553.14
2024-01-05T06:34:17.101Z,102550.00
2024-01-05T06:36:52.304Z,102552.51
2024-01-05T06:39:29.086Z,102552.34
2024-01-05T06:42:05.099Z,102560.05
2024-01-05T06:44:34.470Z,102559.85
2024-01-05T06:47:09.679Z,102563.23
2024-01-05T06:49:44.402Z,102562.38
2024-01-05T06:52:19.140Z,102563.93
2024-01-05T06:54:48.264Z,102566.44
2024-01-05T06:57:23.530Z,102570.16
2024-01-05T06:59:51.169Z,102571.75
2024-01-05T07:02:26.081Z,102575.83
2024-01-05T07:05:00.540Z,102575.86
2024-01-05T07:07:42.044Z,102578.17
2024-01-05T07:10:17.126Z,102582.42
2024-01-05T07:12:52.137Z,102581.79
2024-01-05T07:15:20.711Z,102581.09
2024-01-05T07:17:56.088Z,102576.68
2024-01-05T07:20:59.920Z,102573.66
2024-01-05T07:23:15.839Z,102580.69
2024-01-05T07:25:50.630Z,102583.67
2024-01-05T07:28:25.836Z,102579.85
2024-01-05T07:31:00.201Z,102572.00
2024-01-05T07:33:34.511Z,102561.59
2024-01-05T07:36:12.227Z,102554.89
2024-01-05T07:38:47.001Z,102555.44
2024-01-05T07:41:25.855Z,102558.88
2024-01-05T07:44:00.983Z,102563.89
2024-01-05T07:46:35.641Z,102564.92
2024-01-05T07:49:00.002Z,102563.55
2024-01-05T07:51:34.296Z,102559.89
2024-01-05T07:54:02.170Z,102558.48
2024-01-05T07:56:40.418Z,102554.67
2024-01-05T07:59:13.459Z,102550.34
2024-01-05T08:01:34.529Z,102545.94
2024-01-05T08:03:57.227Z,102547.64
2024-01-05T08:06:15.033Z,102549.91
2024-01-05T08:08:32.468Z,102555.02
2024-01-05T08:10:48.879Z,102560.02
2024-01-05T08:13:28.322Z,102552.44
2024-01-05T08:16:03.506Z,102547.29
2024-01-05T08:18:29.120Z,102542.91
2024-01-05T08:21:04.849Z,102541.39
2024-01-05T08:23:33.328Z,102538.80
2024-01-05T08:26:07.967Z,102532.83
2024-01-05T08:28:42.220Z,102536.85
2024-01-05T08:31:10.610Z,102536.83
2024-01-05T08:33:46.022Z,102535.60
2024-01-05T08:36:20.315Z,102539.40
2024-01-05T08:38:55.362Z,102541.00
2024-01-05T08:41:17.946Z,102539.02
2024-01-05T08:43:54.223Z,102536.06
2024-01-05T08:46:16.946Z,102541.93
2024-01-05T08:48:41.298Z,102544.55
2024-01-05T08:50:57.918Z,102551.73
2024-01-05T08:53:32.457Z,102547.77
2024-01-05T08:56:05.036Z,102542.94
2024-01-05T08:58:32.878Z,102544.52
2024-01-05T09:01:03.753Z,102537.84
2024-01-05T09:03:39.802Z,102534.30
2024-01-05T09:06:17.040Z,102535.35
2024-01-05T09:08:44.643Z,102532.91
2024-01-05T09:11:10.093Z,102529.62
2024-01-05T09:13:44.114Z,102530.08
2024-01-05T09:16:06.477Z,102523.83
2024-01-05T09:18:36.403Z,102522.43
2024-01-05T09:21:02.325Z,102526.85
2024-01-05T09:23:20.314Z,102533.52
2024-01-05T09:25:41.341Z,102531.50
2024-01-05T09:28:17.831Z,102529.23
2024-01-05T09:30:34.745Z,102521.16
2024-01-05T09:33:06.614Z,102532.05
2024-01-05T09:35:42.099Z,102528.89
2024-01-05T09:38:19.583Z,102523.48
2024-01-05T09:40:55.971Z,102522.64
2024-01-05T09:43:32.224Z,102528.95
2024-01-05T09:46:06.624Z,102523.35
2024-01-05T09:48:39.969Z,102526.09
2024-01-05T09:51:23.783Z,102525.95
2024-01-05T09:53:58.628Z,102526.23
2024-01-05T09:56:26.446Z,102530.96
2024-01-05T09:59:00.536Z,102530.20
2024-01-05T10:01:41.698Z,102532.41
2024-01-05T10:04:11.588Z,102532.30
2024-01-05T10:06:39.200Z,102521.23
2024-01-05T10:08:59.075Z,102524.19
2024-01-05T10:11:37.681Z,102526.98
2024-01-05T10:14:15.567Z,102531.34
2024-01-05T10:16:50.140Z,102531.77
2024-01-05T10:19:24.835Z,102540.00
2024-01-05T10:21:58.163Z,102536.74
2024-01-05T10:24:32.591Z,102537.89
2024-01-05T10:27:04.668Z,102542.77
2024-01-05T10:29:27.776Z,102538.20
2024-01-05T10:31:43.164Z,102537.64
2024-01-05T10:34:18.351Z,102543.80
2024-01-05T10:36:41.414Z,102544.80
2024-01-05T10:39:16.874Z,102541.41
2024-01-05T10:41:51.490Z,102551.33
2024-01-05T10:44:29.513Z,102552.98
2024-01-05T10:46:47.843Z,102554.16
2024-01-05T10:49:01.878Z,102563.93
2024-01-05T10:51:21.432Z,102571.07
2024-01-05T10:53:38.649Z,102574.15
2024-01-05T10:55:53.890Z,102584.34
2024-01-05T10:58:27.875Z,102580.45
2024-01-05T11:00:42.748Z,102568.88
2024-01-05T11:03:00.083Z,102577.67
2024-01-05T11:05:36.335Z,102576.58
2024-01-05T11:07:52.856Z,102581.34
2024-01-05T11:10:26.176Z,102583.52
2024-01-05T11:13:13.872Z,102589.17
2024-01-05T11:15:48.049Z,102595.79
2024-01-05T11:18:52.432Z,102603.14
2024-01-05T11:21:40.685Z,102603.60
2024-01-05T11:24:20.060Z,102604.30
2024-01-05T11:26:41.480Z,102603.02
2024-01-05T11:28:56.243Z,102604.58
2024-01-05T11:31:14.259Z,102601.02
2024-01-05T11:33:55.260Z,102603.32
2024-01-05T11:36:12.441Z,102602.00
2024-01-05T11:38:38.691Z,102609.77
2024-01-05T11:41:23.457Z,102609.34
2024-01-05T11:43:48.186Z,102603.74
2024-01-05T11:46:06.045Z,102603.59
2024-01-05T11:48:56.213Z,102604.84
2024-01-05T11:51:29.702Z,102601.98
2024-01-05T11:53:48.271Z,102600.54
2024-01-05T11:56:05.634Z,102600.34
2024-01-05T11:58:30.833Z,102604.73
2024-01-05T12:00:47.604Z,102607.55
2024-01-05T12:03:11.155Z,102604.73
2024-01-05T12:05:26.133Z,102609.33
2024-01-05T12:07:49.200Z,102608.57
2024-01-05T12:10:02.741Z,102612.25
2024-01-05T12:12:28.413Z,102604.58
2024-01-05T12:14:50.800Z,102610.79
2024-01-05T12:17:20.506Z,102618.21
2024-01-05T12:19:38.344Z,102623.90
2024-01-05T12:21:58.396Z,102629.23
2024-01-05T12:24:33.121Z,102634.45
2024-01-05T12:27:07.604Z,102631.17
2024-01-05T12:29:45.178Z,102629.77
2024-01-05T12:32:21.477Z,102622.33
2024-01-05T12:34:54.859Z,102624.77
2024-01-05T12:37:30.130Z,102630.58
2024-01-05T12:39:53.853Z,102638.54
2024-01-05T12:42:12.300Z,102638.84
2024-01-05T12:44:26.780Z,102632.77
2024-01-05T12:46:53.070Z,102630.03
2024-01-05T12:49:25.358Z,102620.08
2024-01-05T12:51:39.441Z,102616.36
2024-01-05T12:54:01.598Z,102615.86
2024-01-05T12:56:16.584Z,102619.75
2024-01-05T12:58:35.879Z,102622.20
2024-01-05T13:01:10.034Z,102632.98
2024-01-05T13:03:24.227Z,102628.98
2024-01-05T13:05:41.719Z,102629.80
2024-01-05T13:08:06.869Z,102635.42
2024-01-05T13:10:41.169Z,102637.96
2024-01-05T13:13:14.911Z,102649.02
2024-01-05T13:15:49.613Z,102657.22
2024-01-05T13:18:12.691Z,102669.59
2024-01-05T13:20:36.473Z,102666.29
2024-01-05T13:23:11.997Z,102658.75
2024-01-05T13:25:45.934Z,102660.52
2024-01-05T13:28:20.396Z,102661.52
2024-01-05T13:30:54.814Z,102659.09
2024-01-05T13:33:19.843Z,102659.48
2024-01-05T13:35:55.289Z,102657.27
2024-01-05T13:38:29.350Z,102659.20
2024-01-05T13:41:03.762Z,102653.98
2024-01-05T13:43:38.881Z,102655.13
2024-01-05T13:46:12.947Z,102660.49
2024-01-05T13:48:47.837Z,102655.60
2024-01-05T13:51:22.128Z,102653.19
2024-01-05T13:53:47.963Z,102654.35
2024-01-05T13:56:22.522Z,102651.83
2024-01-05T13:58:45.374Z,102651.46
2024-01-05T14:01:20.163Z,102656.60
2024-01-05T14:03:53.904Z,102659.10
2024-01-05T14:06:26.997Z,102658.77
2024-01-05T14:09:01.877Z,102659.85
2024-01-05T14:11:21.714Z,102665.70
2024-01-05T14:13:54.241Z,102659.97
2024-01-05T14:16:19.861Z,102652.16
2024-01-05T14:18:54.371Z,102651.23
2024-01-05T14:21:25.035Z,102656.98
2024-01-05T14:23:57.960Z,102676.05
2024-01-05T14:26:22.095Z,102679.47
2024-01-05T14:28:56.393Z,102677.05
2024-01-05T14:31:33.129Z,102676.91
2024-01-05T14:34:00.134Z,102687.27
2024-01-05T14:36:34.059Z,102686.44
2024-01-05T14:39:08.095Z,102690.59
2024-01-05T14:41:41.813Z,102687.88
2024-01-05T14:44:16.305Z,102688.67
2024-01-05T14:46:40.011Z,102687.17
2024-01-05T14:49:14.162Z,102682.03
2024-01-05T14:51:51.395Z,102680.70
2024-01-05T14:54:08.682Z,102683.78
2024-01-05T14:56:42.469Z,102683.85
2024-01-05T14:59:16.555Z,102685.51
2024-01-05T15:01:29.789Z,102688.62
2024-01-05T15:03:53.649Z,102688.94
2024-01-05T15:06:18.892Z,102689.23
2024-01-05T15:08:41.874Z,102690.92
2024-01-05T15:11:24.467Z,102677.39
2024-01-05T15:13:59.226Z,102670.32
2024-01-05T15:16:23.953Z,102671.52
2024-01-05T15:18:41.203Z,102679.68
2024-01-05T15:21:15.954Z,102682.52
2024-01-05T15:23:51.016Z,102684.11
2024-01-05T15:26:16.421Z,102681.89
2024-01-05T15:28:43.545Z,102682.08
2024-01-05T15:31:10.857Z,102678.80
2024-01-05T15:33:44.425Z,102683.52
2024-01-05T15:36:07.949Z,102689.30
2024-01-05T15:38:41.161Z,102687.35
2024-01-05T15:40:57.510Z,102686.19
2024-01-05T15:43:31.626Z,102676.59
2024-01-05T15:46:06.688Z,102669.21
2024-01-05T15:48:41.408Z,102666.13
2024-01-05T15:51:16.439Z,102670.80
2024-01-05T15:53:52.417Z,102679.88
2024-01-05T15:56:26.609Z,102676.34
2024-01-05T15:58:59.977Z,102664.02
2024-01-05T16:01:34.276Z,102663.20
2024-01-05T16:04:09.256Z,102681.43
2024-01-05T16:06:43.439Z,102683.40
2024-01-05T16:09:18.626Z,102689.60
2024-01-05T16:11:53.183Z,102687.66
2024-01-05T16:14:26.682Z,102681.29
2024-01-05T16:16:54.632Z,102677.25
2024-01-05T16:19:28.583Z,102675.20
2024-01-05T16:22:02.115Z,102684.10
2024-01-05T16:24:30.269Z,102682.66
2024-01-05T16:27:04.720Z,102681.20
2024-01-05T16:29:37.942Z,102677.97
2024-01-05T16:31:55.837Z,102678.84
2024-01-05T16:34:21.687Z,102679.11
2024-01-05T16:36:56.249Z,102689.30
2024-01-05T16:39:30.801Z,102692.76
2024-01-05T16:42:05.695Z,102692.73
2024-01-05T16:44:39.616Z,102697.41
2024-01-05T16:46:59.308Z,102694.54
2024-01-05T16:49:16.497Z,102698.73
2024-01-05T16:51:50.359Z,102698.27
2024-01-05T16:54:07.063Z,102696.92
2024-01-05T16:56:31.399Z,102695.02
2024-01-05T16:58:48.182Z,102689.98
2024-01-05T17:01:22.706Z,102691.74
2024-01-05T17:03:59.296Z,102697.64
2024-01-05T17:06:19.992Z,102696.42
2024-01-05T17:08:43.996Z,102703.60
2024-01-05T17:11:19.215Z,102697.38
2024-01-05T17:13:37.192Z,102692.48
2024-01-05T17:15:53.351Z,102694.55
2024-01-05T17:18:21.550Z,102696.48
2024-01-05T17:20:58.221Z,102692.34
2024-01-05T17:23:32.664Z,102695.14
2024-01-05T17:26:06.555Z,102691.10
2024-01-05T17:28:41.432Z,102686.67
2024-01-05T17:31:15.882Z,102690.59
2024-01-05T17:33:43.757Z,102687.42
2024-01-05T17:36:11.942Z,102682.33
2024-01-05T17:38:45.662Z,102686.76
2024-01-05T17:41:00.831Z,102692.27
2024-01-05T17:43:34.744Z,102689.64
2024-01-05T17:45:48.453Z,102689.98
2024-01-05T17:48:26.823Z,102687.69
2024-01-05T17:50:40.109Z,102684.55
2024-01-05T17:53:05.630Z,102682.98
2024-01-05T17:55:23.243Z,102671.84
2024-01-05T17:57:57.637Z,102669.56
2024-01-05T18:00:31.272Z,102671.17
2024-01-05T18:03:05.746Z,102671.17
2024-01-05T18:05:30.698Z,102674.42
2024-01-05T18:08:05.294Z,102686.89
2024-01-05T18:10:39.600Z,102700.33
2024-01-05T18:12:57.577Z,102710.17
2024-01-05T18:15:31.866Z,102708.06
2024-01-05T18:17:54.454Z,102701.96
2024-01-05T18:20:22.163Z,102707.66
2024-01-05T18:22:46.221Z,102702.94
2024-01-05T18:25:20.134Z,102694.98
2024-01-05T18:27:54.785Z,102698.04
2024-01-05T18:30:29.132Z,102701.80
2024-01-05T18:32:53.944Z,102699.05
2024-01-05T18:35:08.803Z,102696.31
2024-01-05T18:37:33.827Z,102691.04
2024-01-05T18:39:47.416Z,102694.69
2024-01-05T18:42:01.212Z,102697.70
2024-01-05T18:44:15.983Z,102690.77
2024-01-05T18:46:29.832Z,102691.02
2024-01-05T18:48:44.667Z,102682.34
2024-01-05T18:50:57.792Z,102681.58
2024-01-05T18:53:11.469Z,102675.80
2024-01-05T18:55:24.990Z,102671.23
2024-01-05T18:57:38.149Z,102663.91
2024-01-05T18:59:51.368Z,102655.15
2024-01-05T19:02:06.392Z,102652.95
2024-01-05T19:04:21.575Z,102648.35
2024-01-05T19:06:35.258Z,102637.58
2024-01-05T19:08:48.630Z,102635.55
2024-01-05T19:11:02.715Z,102635.05
2024-01-05T19:13:17.320Z,102628.29
2024-01-05T19:15:30.262Z,102623.67
2024-01-05T19:17:45.416Z,102624.16
2024-01-05T19:19:59.035Z,102625.66
2024-01-05T19:22:12.865Z,102627.70
2024-01-05T19:24:26.471Z,102629.95
2024-01-05T19:26:41.479Z,102622.25
2024-01-05T19:28:54.565Z,102612.54
2024-01-05T19:31:09.013Z,102601.37
2024-01-05T19:33:22.746Z,102597.54
2024-01-05T19:35:36.764Z,102592.97
2024-01-05T19:37:50.437Z,102592.27
2024-01-05T19:40:03.736Z,102590.32
2024-01-05T19:42:20.390Z,102579.64
2024-01-05T19:44:34.443Z,102575.49
2024-01-05T19:46:47.368Z,102579.09
2024-01-05T19:49:00.708Z,102576.03
2024-01-05T19:51:15.162Z,102581.78
2024-01-05T19:53:28.043Z,102577.86
2024-01-05T19:55:42.109Z,102574.72
2024-01-05T19:57:55.291Z,102573.03
2024-01-05T20:00:09.686Z,102569.33
2024-01-05T20:02:22.960Z,102563.14
2024-01-05T20:04:36.313Z,102561.96
2024-01-05T20:06:50.517Z,102564.51
2024-01-05T20:09:03.598Z,102558.83
2024-01-05T20:11:19.139Z,102550.23
2024-01-05T20:13:32.870Z,102540.55
2024-01-05T20:15:46.495Z,102540.20
2024-01-05T20:18:01.225Z,102533.25
2024-01-05T20:20:15.750Z,102527.86
2024-01-05T20:22:29.006Z,102524.81
2024-01-05T20:24:42.078Z,102511.34
2024-01-05T20:26:56.803Z,102504.91
2024-01-05T20:29:10.186Z,102499.73
2024-01-05T20:31:23.817Z,102492.88
2024-01-05T20:33:37.499Z,102496.20
2024-01-05T20:35:50.819Z,102500.65
2024-01-05T20:38:05.413Z,102501.02
2024-01-05T20:40:20.376Z,102498.88
2024-01-05T20:42:33.341Z,102494.70
2024-01-05T20:44:46.913Z,102501.52
2024-01-05T20:47:03.512Z,102502.13
2024-01-05T20:49:16.798Z,102495.80
2024-01-05T20:51:30.284Z,102499.54
2024-01-05T20:53:43.387Z,102497.80
2024-01-05T20:55:57.624Z,102491.95
2024-01-05T20:58:10.905Z,102489.98
2024-01-05T21:00:25.030Z,102491.23
2024-01-05T21:02:38.134Z,102488.30
2024-01-05T21:04:52.757Z,102483.32
2024-01-05T21:07:07.133Z,102484.87
2024-01-05T21:09:22.047Z,102487.11
2024-01-05T21:11:36.127Z,102483.97
2024-01-05T21:13:49.278Z,102486.48
2024-01-05T21:16:03.679Z,102487.55
2024-01-05T21:18:17.564Z,102490.60
2024-01-05T21:20:30.926Z,102491.13
2024-01-05T21:22:44.294Z,102493.05
2024-01-05T21:24:57.513Z,102488.09
2024-01-05T21:27:11.946Z,102485.05
2024-01-05T21:29:25.263Z,102491.00
2024-01-05T21:31:38.470Z,102485.17
2024-01-05T21:33:52.032Z,102475.80
2024-01-05T21:36:05.483Z,102471.54
2024-01-05T21:38:18.925Z,102462.81
2024-01-05T21:40:32.814Z,102460.68
2024-01-05T21:42:46.162Z,102454.13
2024-01-05T21:44:59.334Z,102452.25
2024-01-05T21:47:13.137Z,102452.44
2024-01-05T21:49:27.275Z,102448.69
2024-01-05T21:51:40.736Z,102445.51
2024-01-05T21:53:54.358Z,102443.94
2024-01-05T21:56:07.746Z,102440.42
2024-01-05T21:58:20.899Z,102438.95
2024-01-05T22:00:34.460Z,102431.39
2024-01-05T22:02:48.698Z,102422.70
2024-01-05T22:05:02.930Z,102417.26
2024-01-05T22:07:17.008Z,102415.13
2024-01-05T22:09:31.195Z,102407.27
2024-01-05T22:11:49.020Z,102397.14
2024-01-05T22:14:01.972Z,102388.63
2024-01-05T22:16:19.663Z,102379.46
2024-01-05T22:18:39.970Z,102375.05
2024-01-05T22:20:52.867Z,102374.77
2024-01-05T22:23:06.885Z,102370.33
2024-01-05T22:25:20.009Z,102369.97
2024-01-05T22:27:33.529Z,102365.29
2024-01-05T22:29:46.952Z,102355.23
2024-01-05T22:32:00.569Z,102345.83
2024-01-05T22:34:14.390Z,102333.71
2024-01-05T22:36:27.680Z,102325.48
2024-01-05T22:38:40.799Z,102319.48
2024-01-05T22:40:54.159Z,102305.84
2024-01-05T22:43:08.371Z,102301.78
2024-01-05T22:45:21.798Z,102294.20
2024-01-05T22:47:34.853Z,102301.36
2024-01-05T22:49:47.976Z,102289.09
2024-01-05T22:52:01.427Z,102289.73
2024-01-05T22:54:15.173Z,102282.09
2024-01-05T22:56:28.268Z,102276.48
2024-01-05T22:58:41.624Z,102267.70
2024-01-05T23:00:55.404Z,102265.98
2024-01-05T23:03:13.308Z,102261.86
2024-01-05T23:05:26.618Z,102256.39
2024-01-05T23:07:39.728Z,102248.02
2024-01-05T23:09:52.743Z,102244.98
2024-01-05T23:12:05.908Z,102242.61
2024-01-05T23:14:19.680Z,102242.68
2024-01-05T23:16:32.938Z,102236.04
2024-01-05T23:18:46.173Z,102229.27
2024-01-05T23:20:59.547Z,102226.17
2024-01-05T23:23:13.640Z,102230.92
2024-01-05T23:25:26.859Z,102237.84
2024-01-05T23:27:40.289Z,102233.56
2024-01-05T23:29:53.633Z,102210.63
2024-01-05T23:32:09.500Z,102214.40
2024-01-05T23:34:22.588Z,102228.91
2024-01-05T23:36:35.912Z,102241.54
2024-01-05T23:38:50.679Z,102241.21
2024-01-05T23:41:04.338Z,102229.20
2024-01-05T23:43:17.322Z,102215.59
2024-01-05T23:45:30.588Z,102201.24
2024-01-05T23:47:44.731Z,102201.02
2024-01-05T23:50:00.530Z,102200.79
2024-01-05T23:52:16.454Z,102197.74
2024-01-05T23:54:32.147Z,102188.96
2024-01-05T23:56:46.343Z,102194.94
2024-01-05T23:58:59.828Z,102182.09
